Time;durP1;ratioP1;P1;durP2;ratioP2;P2;SDS_P1;SDS_P2;PMS_P1;PMS_P2;Temp;Humidity;BMP_temperature;BMP_pressure;BME280_temperature;BME280_humidity;BME280_pressure;Samples;Min_cycle;Max_cycle;Signal;HPM_P1;HPM_P2
2024/01/24 00:01:21;;;;;;;;;0.00;0.00;;;;;-144.62;100.00;60556.56;5039877;28;45369;-75
2024/01/24 00:03:46;;;;;;;;;0.00;0.00;;;;;-144.62;100.00;60556.56;5033590;28;45412;-75
2024/01/24 00:06:11;;;;;;;;;0.00;0.00;;;;;-144.62;100.00;60556.56;5033400;27;45718;-75
2024/01/24 00:08:37;;;;;;;;;0.00;0.00;;;;;-144.62;100.00;60556.56;5038662;28;46274;-75
2024/01/24 00:11:02;;;;;;;;;0.00;0.00;;;;;-144.62;100.00;60556.56;5037536;28;45439;-75
2024/01/24 00:13:28;;;;;;;;;0.00;0.00;;;;;-144.62;100.00;60556.56;5028881;28;45552;-76
2024/01/24 00:15:53;;;;;;;;;0.00;0.00;;;;;-144.62;100.00;60556.56;5037599;28;45503;-75
2024/01/24 00:18:18;;;;;;;;;0.00;0.00;;;;;-144.62;100.00;60556.56;5033946;28;46265;-75
2024/01/24 00:20:44;;;;;;;;;0.00;0.00;;;;;-144.62;100.00;60556.56;5036841;27;45279;-75
2024/01/24 00:23:09;;;;;;;;;1.00;0.00;;;;;-144.62;100.00;60556.56;5040076;27;45501;-75
2024/01/24 00:25:34;;;;;;;;;0.00;0.00;;;;;-144.62;100.00;60556.56;5040169;28;45224;-75
2024/01/24 00:28:00;;;;;;;;;0.00;0.00;;;;;-144.62;100.00;60556.56;5031518;27;51610;-75
2024/01/24 00:30:25;;;;;;;;;0.00;0.00;;;;;-144.62;100.00;60556.56;5037977;28;46515;-75
2024/01/24 00:32:50;;;;;;;;;0.00;0.00;;;;;-144.62;100.00;60556.56;5034026;27;45343;-75
2024/01/24 00:35:16;;;;;;;;;0.00;0.00;;;;;-144.62;100.00;60556.56;5047995;28;45786;-75
2024/01/24 00:37:41;;;;;;;;;0.00;0.00;;;;;-144.62;100.00;60556.56;5036012;28;47577;-75
2024/01/24 00:40:07;;;;;;;;;0.00;0.00;;;;;-144.62;100.00;60556.56;5037787;28;45486;-75
2024/01/24 00:42:33;;;;;;;;;1.00;0.00;;;;;-144.62;100.00;60556.56;5037244;28;45498;-75
2024/01/24 00:44:58;;;;;;;;;0.00;0.00;;;;;-144.62;100.00;60556.56;5040658;28;45430;-75
2024/01/24 00:47:23;;;;;;;;;0.00;0.00;;;;;-144.62;100.00;60556.56;5033947;28;47131;-75
2024/01/24 00:49:49;;;;;;;;;0.00;0.00;;;;;-144.62;100.00;60556.56;5036024;28;45527;-75
2024/01/24 00:52:14;;;;;;;;;0.00;0.00;;;;;-144.62;100.00;60556.56;5035268;27;45692;-75
2024/01/24 00:54:39;;;;;;;;;0.00;0.00;;;;;-144.62;100.00;60556.56;5044504;27;45435;-75
2024/01/24 00:57:05;;;;;;;;;0.00;0.00;;;;;-144.62;100.00;60556.56;5033799;27;45509;-75
2024/01/24 00:59:30;;;;;;;;;0.00;0.00;;;;;-144.62;100.00;60556.56;5037673;28;45425;-76
2024/01/24 01:01:56;;;;;;;;;0.00;0.00;;;;;-144.62;100.00;60556.56;5035371;28;45304;-75
2024/01/24 01:04:22;;;;;;;;;0.00;0.00;;;;;-144.62;100.00;60556.56;5039850;28;45575;-76
2024/01/24 01:06:47;;;;;;;;;0.00;0.00;;;;;-144.62;100.00;60556.56;5034404;28;45757;-75
2024/01/24 01:09:13;;;;;;;;;0.00;0.00;;;;;-144.62;100.00;60556.56;5032894;28;45455;-75
2024/01/24 01:11:38;;;;;;;;;0.00;0.00;;;;;-144.62;100.00;60556.56;5034941;28;45528;-76
2024/01/24 01:14:05;;;;;;;;;0.00;0.00;;;;;-144.62;100.00;60556.56;5039148;28;45483;-76
2024/01/24 01:16:31;;;;;;;;;0.00;0.00;;;;;-144.62;100.00;60556.56;5034136;28;45417;-75
2024/01/24 01:18:56;;;;;;;;;0.00;0.00;;;;;-144.62;100.00;60556.56;5028781;28;45258;-75
2024/01/24 01:21:21;;;;;;;;;0.00;0.00;;;;;-144.62;100.00;60556.56;5036781;28;45434;-76
2024/01/24 01:23:47;;;;;;;;;0.00;0.00;;;;;-144.62;100.00;60556.56;5049839;28;45357;-76
2024/01/24 01:26:12;;;;;;;;;0.67;0.00;;;;;-144.62;100.00;60556.56;5037911;28;51652;-75
2024/01/24 01:28:38;;;;;;;;;0.00;0.00;;;;;-144.62;100.00;60556.56;5030490;28;45316;-76
2024/01/24 01:31:04;;;;;;;;;0.00;0.00;;;;;-144.62;100.00;60556.56;5049525;27;45269;-76
2024/01/24 01:33:29;;;;;;;;;0.00;0.00;;;;;-144.62;100.00;60556.56;5032072;28;45505;-75
2024/01/24 01:35:54;;;;;;;;;0.00;0.00;;;;;-144.62;100.00;60556.56;5038930;28;45672;-75
2024/01/24 01:38:20;;;;;;;;;0.00;0.00;;;;;-144.62;100.00;60556.56;5054946;28;45411;-75
2024/01/24 01:40:45;;;;;;;;;0.00;0.00;;;;;-144.62;100.00;60556.56;5038981;28;45314;-75
2024/01/24 01:43:14;;;;;;;;;0.00;0.00;;;;;-144.62;100.00;60556.56;5038948;27;45544;-75
2024/01/24 01:45:40;;;;;;;;;0.00;0.00;;;;;-144.62;100.00;60556.56;5026628;28;45510;-75
2024/01/24 01:48:07;;;;;;;;;0.00;0.00;;;;;-144.62;100.00;60556.56;5031562;28;45420;-75
2024/01/24 01:50:33;;;;;;;;;0.00;0.00;;;;;-144.62;100.00;60556.56;5036379;28;45249;-75
2024/01/24 01:52:59;;;;;;;;;0.00;0.00;;;;;-144.62;100.00;60556.56;5039670;28;45518;-75
2024/01/24 01:55:24;;;;;;;;;0.00;0.00;;;;;-144.62;100.00;60556.56;5036842;28;46774;-75
2024/01/24 01:57:50;;;;;;;;;0.00;0.00;;;;;-144.62;100.00;60556.56;5037874;27;45446;-75
2024/01/24 02:00:20;;;;;;;;;0.00;0.00;;;;;-144.62;100.00;60556.56;5037563;28;45435;-76
2024/01/24 02:02:46;;;;;;;;;0.00;0.00;;;;;-144.62;100.00;60556.56;5030515;27;45261;-75
2024/01/24 02:05:13;;;;;;;;;0.00;0.00;;;;;-144.62;100.00;60556.56;5039236;27;45344;-75
2024/01/24 02:07:38;;;;;;;;;0.00;0.00;;;;;-144.62;100.00;60556.56;5033808;28;45267;-75
2024/01/24 02:10:04;;;;;;;;;0.00;0.00;;;;;-144.62;100.00;60556.56;5023382;28;45327;-75
2024/01/24 02:12:29;;;;;;;;;0.00;0.00;;;;;-144.62;100.00;60556.56;5028062;28;45404;-75
2024/01/24 02:14:54;;;;;;;;;0.00;0.00;;;;;-144.62;100.00;60556.56;5038828;28;49553;-75
2024/01/24 02:17:19;;;;;;;;;0.00;0.00;;;;;-144.62;100.00;60556.56;5033916;28;45360;-74
2024/01/24 02:19:45;;;;;;;;;0.00;0.00;;;;;-144.62;100.00;60556.56;5027903;28;45363;-75
2024/01/24 02:22:10;;;;;;;;;0.00;0.00;;;;;-144.62;100.00;60556.56;5046844;28;45572;-75
2024/01/24 02:24:36;;;;;;;;;0.00;0.00;;;;;-144.62;100.00;60556.56;5029056;27;46180;-75
2024/01/24 02:27:01;;;;;;;;;0.00;0.00;;;;;-144.62;100.00;60556.56;5036944;28;45684;-75
2024/01/24 02:29:26;;;;;;;;;0.00;0.00;;;;;-144.62;100.00;60556.56;5029732;28;45425;-75
2024/01/24 02:31:52;;;;;;;;;0.00;0.00;;;;;-144.62;100.00;60556.56;5038594;28;45405;-75
2024/01/24 02:34:17;;;;;;;;;0.00;0.00;;;;;-144.62;100.00;60556.56;5030764;28;45443;-76
2024/01/24 02:36:42;;;;;;;;;0.00;0.00;;;;;-144.62;100.00;60556.56;5040387;28;45438;-76
2024/01/24 02:39:08;;;;;;;;;0.00;0.00;;;;;-144.62;100.00;60556.56;5037592;27;46066;-75
2024/01/24 02:41:33;;;;;;;;;2.00;2.00;;;;;-144.62;100.00;60556.56;5034449;27;45307;-75
2024/01/24 02:43:59;;;;;;;;;1.00;1.00;;;;;-144.62;100.00;60556.56;5041407;28;46302;-75
2024/01/24 02:46:24;;;;;;;;;0.00;0.00;;;;;-144.62;100.00;60556.56;5033912;28;45394;-75
2024/01/24 02:48:50;;;;;;;;;0.00;0.00;;;;;-144.62;100.00;60556.56;5037157;28;45262;-76
2024/01/24 02:51:25;;;;;;;;;0.00;0.00;;;;;-144.62;100.00;60556.56;5038995;28;45655;-76
2024/01/24 02:53:51;;;;;;;;;0.00;0.00;;;;;-144.62;100.00;60556.56;5037051;28;45485;-75
2024/01/24 02:56:16;;;;;;;;;0.00;0.00;;;;;-144.62;100.00;60556.56;5040534;27;45438;-75
2024/01/24 02:58:41;;;;;;;;;0.00;0.00;;;;;-144.62;100.00;60556.56;5033202;28;45409;-75
2024/01/24 03:01:07;;;;;;;;;0.00;0.00;;;;;-144.62;100.00;60556.56;5040747;28;45333;-75
2024/01/24 03:03:32;;;;;;;;;0.00;0.00;;;;;-144.62;100.00;60556.56;5032435;28;45798;-76
2024/01/24 03:05:58;;;;;;;;;0.00;0.00;;;;;-144.62;100.00;60556.56;5037205;28;45661;-76
2024/01/24 03:08:23;;;;;;;;;0.00;0.00;;;;;-144.62;100.00;60556.56;5032144;28;45666;-75
2024/01/24 03:10:48;;;;;;;;;0.00;0.00;;;;;-144.62;100.00;60556.56;5041358;28;45649;-75
2024/01/24 03:13:13;;;;;;;;;0.00;0.00;;;;;-144.62;100.00;60556.56;5036478;28;45979;-76
2024/01/24 03:15:39;;;;;;;;;0.00;0.00;;;;;-144.62;100.00;60556.56;5040234;28;45514;-76
2024/01/24 03:18:04;;;;;;;;;0.00;0.00;;;;;-144.62;100.00;60556.56;5039724;28;45371;-76
2024/01/24 03:20:30;;;;;;;;;0.00;0.00;;;;;-144.62;100.00;60556.56;5040935;28;45393;-76
2024/01/24 03:22:55;;;;;;;;;0.00;0.00;;;;;-144.62;100.00;60556.56;5039815;27;47246;-76
2024/01/24 03:25:21;;;;;;;;;0.00;0.00;;;;;-144.62;100.00;60556.56;5040819;28;45399;-76
2024/01/24 03:27:46;;;;;;;;;0.00;0.00;;;;;-144.62;100.00;60556.56;5039671;27;45433;-76
2024/01/24 03:30:13;;;;;;;;;0.00;0.00;;;;;-144.62;100.00;60556.56;5040477;28;45536;-76
2024/01/24 03:32:38;;;;;;;;;0.00;0.00;;;;;-144.62;100.00;60556.56;5038789;27;46144;-76
2024/01/24 03:35:06;;;;;;;;;0.00;0.00;;;;;-144.62;100.00;60556.56;5033238;28;45287;-76
2024/01/24 03:37:31;;;;;;;;;0.00;0.00;;;;;-144.62;100.00;60556.56;5039935;28;45823;-76
2024/01/24 03:39:56;;;;;;;;;0.00;0.00;;;;;-144.62;100.00;60556.56;5034501;28;45590;-76
2024/01/24 03:42:22;;;;;;;;;0.00;0.00;;;;;-144.62;100.00;60556.56;5039122;28;45668;-76
2024/01/24 03:44:47;;;;;;;;;0.00;0.00;;;;;-144.62;100.00;60556.56;5035914;28;45311;-76
2024/01/24 03:47:12;;;;;;;;;0.00;0.00;;;;;-144.62;100.00;60556.56;5038140;28;45567;-76
2024/01/24 03:49:38;;;;;;;;;0.00;0.00;;;;;-144.62;100.00;60556.56;5037314;28;45167;-76
2024/01/24 03:52:03;;;;;;;;;0.00;0.00;;;;;-144.62;100.00;60556.56;5039604;28;45387;-76
2024/01/24 03:54:29;;;;;;;;;0.00;0.00;;;;;-144.62;100.00;60556.56;5041596;27;45284;-76
2024/01/24 03:56:54;;;;;;;;;0.00;0.00;;;;;-144.62;100.00;60556.56;5036251;27;45493;-77
2024/01/24 03:59:20;;;;;;;;;0.00;0.00;;;;;-144.62;100.00;60556.56;5036950;28;45435;-76
2024/01/24 04:01:45;;;;;;;;;0.00;0.00;;;;;-144.62;100.00;60556.56;5036914;28;45528;-76
2024/01/24 04:04:10;;;;;;;;;0.00;0.00;;;;;-144.62;100.00;60556.56;5033457;28;45461;-76
2024/01/24 04:06:36;;;;;;;;;0.00;0.00;;;;;-144.62;100.00;60556.56;5036542;28;45557;-75
2024/01/24 04:09:03;;;;;;;;;0.00;0.00;;;;;-144.62;100.00;60556.56;5041516;28;45617;-75
2024/01/24 04:11:28;;;;;;;;;0.00;0.00;;;;;-144.62;100.00;60556.56;5025250;28;45537;-75
2024/01/24 04:13:53;;;;;;;;;0.00;0.00;;;;;-144.62;100.00;60556.56;5029158;28;45417;-75
2024/01/24 04:16:19;;;;;;;;;0.00;0.00;;;;;-144.62;100.00;60556.56;5035640;27;45434;-75
2024/01/24 04:18:45;;;;;;;;;0.00;0.00;;;;;-144.62;100.00;60556.56;5039223;28;45231;-75
2024/01/24 04:21:10;;;;;;;;;0.00;0.00;;;;;-144.62;100.00;60556.56;5037048;28;46591;-75
2024/01/24 04:23:35;;;;;;;;;0.00;0.00;;;;;-144.62;100.00;60556.56;5031500;28;45364;-75
2024/01/24 04:26:04;;;;;;;;;0.00;0.00;;;;;-144.62;100.00;60556.56;5038334;28;45226;-75
2024/01/24 04:28:29;;;;;;;;;1.00;0.00;;;;;-144.62;100.00;60556.56;5032748;28;45569;-75
2024/01/24 04:30:54;;;;;;;;;0.00;0.00;;;;;-144.62;100.00;60556.56;5038330;28;45503;-76
2024/01/24 04:33:20;;;;;;;;;0.00;0.00;;;;;-144.62;100.00;60556.56;5038965;28;45378;-75
2024/01/24 04:35:45;;;;;;;;;1.00;0.00;;;;;-144.62;100.00;60556.56;5039677;28;45334;-75
2024/01/24 04:38:10;;;;;;;;;0.67;0.00;;;;;-144.62;100.00;60556.56;5039392;28;45405;-75
2024/01/24 04:40:36;;;;;;;;;0.00;0.00;;;;;-144.62;100.00;60556.56;5038776;27;45468;-75
2024/01/24 04:43:01;;;;;;;;;0.00;0.00;;;;;-144.62;100.00;60556.56;5032671;28;47783;-75
2024/01/24 04:45:27;;;;;;;;;0.00;0.00;;;;;-144.62;100.00;60556.56;5039222;28;45962;-75
2024/01/24 04:47:52;;;;;;;;;0.00;0.00;;;;;-144.62;100.00;60556.56;5039028;28;45474;-75
2024/01/24 04:50:17;;;;;;;;;0.00;0.00;;;;;-144.62;100.00;60556.56;5039501;28;47830;-76
2024/01/24 04:52:43;;;;;;;;;0.00;0.00;;;;;-144.62;100.00;60556.56;5054314;28;45458;-75
2024/01/24 04:55:12;;;;;;;;;0.00;0.00;;;;;-144.62;100.00;60556.56;5037359;27;45661;-75
2024/01/24 04:57:37;;;;;;;;;0.00;0.00;;;;;-144.62;100.00;60556.56;5029396;27;45770;-75
2024/01/24 05:00:07;;;;;;;;;0.00;0.00;;;;;-144.62;100.00;60556.56;5039105;28;45525;-75
2024/01/24 05:02:33;;;;;;;;;0.00;0.00;;;;;-144.62;100.00;60556.56;5028917;28;45278;-76
2024/01/24 05:04:58;;;;;;;;;0.67;0.00;;;;;-144.62;100.00;60556.56;5040324;28;45226;-76
2024/01/24 05:07:24;;;;;;;;;0.00;0.00;;;;;-144.62;100.00;60556.56;5030934;28;45445;-76
2024/01/24 05:09:49;;;;;;;;;0.00;0.00;;;;;-144.62;100.00;60556.56;5038672;28;45498;-76
2024/01/24 05:12:14;;;;;;;;;0.00;0.00;;;;;-144.62;100.00;60556.56;5034603;28;45394;-76
2024/01/24 05:14:40;;;;;;;;;0.00;0.00;;;;;-144.62;100.00;60556.56;5036848;28;45298;-76
2024/01/24 05:17:05;;;;;;;;;0.00;0.00;;;;;-144.62;100.00;60556.56;5046131;27;45598;-76
2024/01/24 05:19:32;;;;;;;;;0.00;0.00;;;;;-144.62;100.00;60556.56;5026695;28;45587;-76
2024/01/24 05:21:57;;;;;;;;;0.00;0.00;;;;;-144.62;100.00;60556.56;5036503;28;45163;-76
2024/01/24 05:24:22;;;;;;;;;1.67;0.00;;;;;-144.62;100.00;60556.56;5028708;28;45167;-76
2024/01/24 05:26:47;;;;;;;;;0.00;0.00;;;;;-144.62;100.00;60556.56;5035533;28;45321;-76
2024/01/24 05:29:13;;;;;;;;;0.00;0.00;;;;;-144.62;100.00;60556.56;5029073;28;47032;-76
2024/01/24 05:31:38;;;;;;;;;0.00;0.00;;;;;-144.62;100.00;60556.56;5038487;28;45376;-76
2024/01/24 05:34:04;;;;;;;;;0.00;0.00;;;;;-144.62;100.00;60556.56;5037001;28;45292;-76
2024/01/24 05:36:29;;;;;;;;;0.67;0.00;;;;;-144.62;100.00;60556.56;5037730;28;45700;-77
2024/01/24 05:38:55;;;;;;;;;0.00;0.00;;;;;-144.62;100.00;60556.56;5039158;28;47892;-76
2024/01/24 05:41:20;;;;;;;;;0.00;0.00;;;;;-144.62;100.00;60556.56;5037872;28;45374;-76
2024/01/24 05:43:45;;;;;;;;;0.00;0.00;;;;;-144.62;100.00;60556.56;5038155;28;45344;-76
2024/01/24 05:46:11;;;;;;;;;0.00;0.00;;;;;-144.62;100.00;60556.56;5038487;28;45423;-77
2024/01/24 05:48:36;;;;;;;;;0.00;0.00;;;;;-144.62;100.00;60556.56;5033878;28;46969;-78
2024/01/24 05:51:02;;;;;;;;;2.67;1.00;;;;;-144.62;100.00;60556.56;5028407;28;45246;-77
2024/01/24 05:53:27;;;;;;;;;2.00;1.00;;;;;-144.62;100.00;60556.56;5038509;28;45430;-78
2024/01/24 05:55:53;;;;;;;;;1.00;1.00;;;;;-144.62;100.00;60556.56;5039344;28;45396;-78
2024/01/24 05:58:18;;;;;;;;;0.33;0.33;;;;;-144.62;100.00;60556.56;5028942;27;45301;-78
2024/01/24 06:00:44;;;;;;;;;0.00;0.00;;;;;-144.62;100.00;60556.56;5036641;28;45475;-78
2024/01/24 06:03:09;;;;;;;;;1.00;1.00;;;;;-144.62;100.00;60556.56;5038908;27;45384;-78
2024/01/24 06:05:34;;;;;;;;;0.67;0.00;;;;;-144.62;100.00;60556.56;5037732;28;45317;-78
2024/01/24 06:08:00;;;;;;;;;0.00;0.00;;;;;-144.62;100.00;60556.56;5028609;27;45974;-78
2024/01/24 06:10:25;;;;;;;;;0.00;0.00;;;;;-144.62;100.00;60556.56;5021665;28;45344;-78
2024/01/24 06:12:50;;;;;;;;;0.00;0.00;;;;;-144.62;100.00;60556.56;5033035;28;45499;-77
2024/01/24 06:15:18;;;;;;;;;0.00;0.00;;;;;-144.62;100.00;60556.56;5031560;27;45541;-77
2024/01/24 06:17:43;;;;;;;;;0.00;0.00;;;;;-144.62;100.00;60556.56;5053930;28;45503;-77
2024/01/24 06:20:09;;;;;;;;;0.00;0.00;;;;;-144.62;100.00;60556.56;5049347;27;45335;-78
2024/01/24 06:22:35;;;;;;;;;0.00;0.00;;;;;-144.62;100.00;60556.56;5037171;28;45444;-77
2024/01/24 06:25:02;;;;;;;;;0.00;0.00;;;;;-144.62;100.00;60556.56;5027729;27;45291;-77
2024/01/24 06:27:28;;;;;;;;;1.00;1.00;;;;;-144.62;100.00;60556.56;5038110;27;47668;-77
2024/01/24 06:29:53;;;;;;;;;0.00;0.00;;;;;-144.62;100.00;60556.56;5032074;27;45537;-77
2024/01/24 06:32:19;;;;;;;;;1.00;0.00;;;;;-144.62;100.00;60556.56;5032976;28;45294;-77
2024/01/24 06:34:44;;;;;;;;;0.00;0.00;;;;;-144.62;100.00;60556.56;5033849;28;45371;-77
2024/01/24 06:37:09;;;;;;;;;0.00;0.00;;;;;-144.62;100.00;60556.56;5031977;28;47955;-77
2024/01/24 06:39:35;;;;;;;;;0.00;0.00;;;;;-144.62;100.00;60556.56;5034735;28;45318;-77
2024/01/24 06:42:00;;;;;;;;;1.00;1.00;;;;;-144.62;100.00;60556.56;5033531;28;45507;-77
2024/01/24 06:44:26;;;;;;;;;1.33;0.00;;;;;-144.62;100.00;60556.56;5036073;28;45488;-77
2024/01/24 06:46:51;;;;;;;;;0.67;0.67;;;;;-144.62;100.00;60556.56;5038388;28;45498;-78
2024/01/24 06:49:16;;;;;;;;;0.00;0.00;;;;;-144.62;100.00;60556.56;5035746;28;45271;-78
2024/01/24 06:51:42;;;;;;;;;0.00;0.00;;;;;-144.62;100.00;60556.56;5039404;28;45496;-78
2024/01/24 06:54:07;;;;;;;;;1.67;1.00;;;;;-144.62;100.00;60556.56;5041197;27;45204;-77
2024/01/24 06:56:33;;;;;;;;;1.00;1.00;;;;;-144.62;100.00;60556.56;5044544;27;46171;-78
2024/01/24 06:58:59;;;;;;;;;0.00;0.00;;;;;-144.62;100.00;60556.56;5031012;28;45517;-78
2024/01/24 07:01:26;;;;;;;;;0.00;0.00;;;;;-144.62;100.00;60556.56;5038281;28;45385;-77
2024/01/24 07:03:53;;;;;;;;;2.00;1.00;;;;;-144.62;100.00;60556.56;5041320;28;45458;-79
2024/01/24 07:06:18;;;;;;;;;0.33;0.33;;;;;-144.62;100.00;60556.56;5039207;28;46607;-79
2024/01/24 07:08:44;;;;;;;;;0.67;0.00;;;;;-144.62;100.00;60556.56;5039068;28;45339;-76
2024/01/24 07:11:10;;;;;;;;;0.00;0.00;;;;;-144.62;100.00;60556.56;5038077;28;45598;-78
2024/01/24 07:13:36;;;;;;;;;1.00;1.00;;;;;-144.62;100.00;60556.56;5037446;28;45614;-78
2024/01/24 07:16:04;;;;;;;;;3.00;1.00;;;;;-144.62;100.00;60556.56;5036740;27;47111;-79
2024/01/24 07:18:31;;;;;;;;;0.00;0.00;;;;;-144.62;100.00;60556.56;5028697;28;45575;-77
2024/01/24 07:20:56;;;;;;;;;2.00;0.00;;;;;-144.62;100.00;60556.56;5036357;28;45764;-75
2024/01/24 07:23:22;;;;;;;;;2.00;1.67;;;;;-144.62;100.00;60556.56;5034536;28;45347;-75
2024/01/24 07:25:47;;;;;;;;;1.67;1.00;;;;;-144.62;100.00;60556.56;5038474;28;46166;-75
2024/01/24 07:28:12;;;;;;;;;2.00;1.00;;;;;-144.62;100.00;60556.56;5034505;28;45320;-76
2024/01/24 07:30:38;;;;;;;;;1.00;1.00;;;;;-144.62;100.00;60556.56;5036414;27;45346;-76
2024/01/24 07:33:05;;;;;;;;;2.00;1.00;;;;;-144.62;100.00;60556.56;5039087;28;45418;-75
2024/01/24 07:35:30;;;;;;;;;2.00;2.00;;;;;-144.62;100.00;60556.56;5039030;28;45294;-75
2024/01/24 07:37:55;;;;;;;;;2.00;1.00;;;;;-144.62;100.00;60556.56;5036331;28;47879;-75
2024/01/24 07:40:21;;;;;;;;;2.00;2.00;;;;;-144.62;100.00;60556.56;5037326;28;45273;-76
2024/01/24 07:42:46;;;;;;;;;2.00;2.00;;;;;-144.62;100.00;60556.56;5036814;28;45191;-75
2024/01/24 07:45:11;;;;;;;;;2.33;2.00;;;;;-144.62;100.00;60556.56;5037107;28;45428;-76
2024/01/24 07:47:37;;;;;;;;;2.00;2.00;;;;;-144.62;100.00;60556.56;5053117;28;45283;-76
2024/01/24 07:50:03;;;;;;;;;2.00;1.00;;;;;-144.62;100.00;60556.56;5031102;28;45560;-75
2024/01/24 07:52:28;;;;;;;;;2.00;2.00;;;;;-144.62;100.00;60556.56;5034497;28;46048;-74
2024/01/24 07:54:54;;;;;;;;;1.00;1.00;;;;;-144.62;100.00;60556.56;5037814;28;45502;-76
2024/01/24 07:57:19;;;;;;;;;4.00;2.00;;;;;-144.62;100.00;60556.56;5033046;27;45442;-76
2024/01/24 07:59:44;;;;;;;;;2.00;2.00;;;;;-144.62;100.00;60556.56;5037858;28;45421;-77
2024/01/24 08:02:09;;;;;;;;;1.67;1.67;;;;;-144.62;100.00;60556.56;5035532;28;45553;-75
2024/01/24 08:04:35;;;;;;;;;1.67;1.67;;;;;-144.62;100.00;60556.56;5039270;28;45364;-74
2024/01/24 08:07:00;;;;;;;;;2.00;2.00;;;;;-144.62;100.00;60556.56;5034215;28;46553;-75
2024/01/24 08:09:25;;;;;;;;;1.00;1.00;;;;;-144.62;100.00;60556.56;5032789;28;45424;-76
2024/01/24 08:11:51;;;;;;;;;2.00;1.33;;;;;-144.62;100.00;60556.56;5049608;28;45348;-75
2024/01/24 08:14:18;;;;;;;;;5.67;3.00;;;;;-144.62;100.00;60556.56;5035705;28;45709;-77
2024/01/24 08:17:04;;;;;;;;;4.67;2.67;;;;;-144.62;100.00;60556.56;5036765;27;45458;-77
2024/01/24 08:19:30;;;;;;;;;2.67;2.67;;;;;-144.62;100.00;60556.56;5031182;27;45519;-76
2024/01/24 08:21:55;;;;;;;;;3.00;2.00;;;;;-144.62;100.00;60556.56;5034879;28;45300;-75
2024/01/24 08:24:21;;;;;;;;;5.67;2.00;;;;;-144.62;100.00;60556.56;5035150;28;45322;-76
2024/01/24 08:26:47;;;;;;;;;2.67;1.67;;;;;-144.62;100.00;60556.56;5035000;28;45511;-77
2024/01/24 08:29:13;;;;;;;;;5.33;3.33;;;;;-144.62;100.00;60556.56;5035745;28;45523;-75
2024/01/24 08:31:38;;;;;;;;;2.33;2.00;;;;;-144.62;100.00;60556.56;5037356;27;45597;-75
2024/01/24 08:34:03;;;;;;;;;2.33;1.00;;;;;-144.62;100.00;60556.56;5035671;28;48362;-77
2024/01/24 08:36:29;;;;;;;;;4.00;4.00;;;;;-144.62;100.00;60556.56;5036557;28;45380;-76
2024/01/24 08:38:54;;;;;;;;;3.00;3.00;;;;;-144.62;100.00;60556.56;5036885;27;48044;-76
2024/01/24 08:41:19;;;;;;;;;5.00;3.33;;;;;-144.62;100.00;60556.56;5035256;27;45672;-76
2024/01/24 08:43:45;;;;;;;;;2.00;2.00;;;;;-144.62;100.00;60556.56;5032757;28;54512;-75
2024/01/24 08:46:10;;;;;;;;;2.67;2.33;;;;;-144.62;100.00;60556.56;5035092;27;45491;-74
2024/01/24 08:48:35;;;;;;;;;4.00;2.33;;;;;-144.62;100.00;60556.56;5039063;28;45434;-75
2024/01/24 08:51:00;;;;;;;;;7.33;5.00;;;;;-144.62;100.00;60556.56;5038623;28;45409;-75
2024/01/24 08:53:26;;;;;;;;;7.67;4.00;;;;;-144.62;100.00;60556.56;5036809;28;54721;-76
2024/01/24 08:55:51;;;;;;;;;5.33;4.00;;;;;-144.62;100.00;60556.56;5038402;28;45383;-76
2024/01/24 08:58:16;;;;;;;;;5.33;3.00;;;;;-144.62;100.00;60556.56;5030215;27;45397;-76
2024/01/24 09:00:42;;;;;;;;;4.33;3.00;;;;;-144.62;100.00;60556.56;5038132;28;45484;-74
2024/01/24 09:03:07;;;;;;;;;5.33;4.00;;;;;-144.62;100.00;60556.56;5035496;27;59110;-77
2024/01/24 09:05:32;;;;;;;;;10.67;4.67;;;;;-144.62;100.00;60556.56;5036996;28;45348;-75
2024/01/24 09:07:58;;;;;;;;;7.00;4.00;;;;;-144.62;100.00;60556.56;5031078;28;45494;-74
2024/01/24 09:10:23;;;;;;;;;4.00;1.00;;;;;-144.62;100.00;60556.56;5040125;28;45392;-76
2024/01/24 09:12:48;;;;;;;;;13.00;4.33;;;;;-144.62;100.00;60556.56;5044442;28;46698;-75
2024/01/24 09:15:14;;;;;;;;;9.67;5.00;;;;;-144.62;100.00;60556.56;5029042;28;55274;-75
2024/01/24 09:17:39;;;;;;;;;9.33;5.00;;;;;-144.62;100.00;60556.56;5030275;28;45455;-75
2024/01/24 09:20:06;;;;;;;;;5.67;3.33;;;;;-144.62;100.00;60556.56;5029671;28;45468;-77
2024/01/24 09:22:31;;;;;;;;;7.33;3.00;;;;;-144.62;100.00;60556.56;5037155;28;46875;-76
2024/01/24 09:24:57;;;;;;;;;6.00;3.00;;;;;-144.62;100.00;60556.56;5031091;28;45392;-76
2024/01/24 09:27:22;;;;;;;;;12.33;5.33;;;;;-144.62;100.00;60556.56;5054851;27;45381;-76
2024/01/24 09:29:47;;;;;;;;;3.00;3.00;;;;;-144.62;100.00;60556.56;5032100;28;45226;-75
2024/01/24 09:32:13;;;;;;;;;5.67;3.00;;;;;-144.62;100.00;60556.56;5037833;28;46528;-76
2024/01/24 09:34:38;;;;;;;;;5.67;5.00;;;;;-144.62;100.00;60556.56;5031354;28;45435;-76
2024/01/24 09:37:03;;;;;;;;;5.67;4.00;;;;;-144.62;100.00;60556.56;5037906;28;45246;-75
2024/01/24 09:39:29;;;;;;;;;7.67;6.67;;;;;-144.62;100.00;60556.56;5032175;27;45593;-75
2024/01/24 09:41:55;;;;;;;;;6.00;3.00;;;;;-144.62;100.00;60556.56;5036270;28;47780;-76
2024/01/24 09:44:21;;;;;;;;;6.67;4.00;;;;;-144.62;100.00;60556.56;5034439;28;45354;-76
2024/01/24 09:46:49;;;;;;;;;6.33;5.00;;;;;-144.62;100.00;60556.56;5037335;28;45560;-76
2024/01/24 09:49:15;;;;;;;;;14.67;9.33;;;;;-144.62;100.00;60556.56;5036738;28;45387;-75
2024/01/24 09:51:42;;;;;;;;;5.67;5.67;;;;;-144.62;100.00;60556.56;5038700;27;46347;-76
2024/01/24 09:54:08;;;;;;;;;7.00;7.00;;;;;-144.62;100.00;60556.56;5039223;28;45270;-76
2024/01/24 09:56:36;;;;;;;;;10.33;6.00;;;;;-144.62;100.00;60556.56;5038278;27;45353;-75
2024/01/24 09:59:07;;;;;;;;;5.67;3.00;;;;;-144.62;100.00;60556.56;5031556;28;45348;-77
2024/01/24 10:01:38;;;;;;;;;8.33;4.67;;;;;-144.62;100.00;60556.56;5036035;28;48028;-75
2024/01/24 10:04:03;;;;;;;;;5.33;4.00;;;;;-144.62;100.00;60556.56;5029918;28;45383;-75
2024/01/24 10:06:29;;;;;;;;;7.67;2.33;;;;;-144.62;100.00;60556.56;5038005;28;45350;-76
2024/01/24 10:08:58;;;;;;;;;12.67;5.00;;;;;-144.62;100.00;60556.56;5031743;28;45434;-76
2024/01/24 10:11:24;;;;;;;;;9.33;5.33;;;;;-144.62;100.00;60556.56;5032995;28;45771;-75
2024/01/24 10:13:50;;;;;;;;;10.00;8.00;;;;;-144.62;100.00;60556.56;5027197;28;45349;-76
2024/01/24 10:16:15;;;;;;;;;13.33;7.33;;;;;-144.62;100.00;60556.56;5033814;28;45359;-77
2024/01/24 10:18:42;;;;;;;;;12.33;8.00;;;;;-144.62;100.00;60556.56;5028022;28;45407;-76
2024/01/24 10:21:07;;;;;;;;;4.33;0.00;;;;;-144.62;100.00;60556.56;5034399;28;45778;-76
2024/01/24 10:23:33;;;;;;;;;9.67;8.00;;;;;-144.62;100.00;60556.56;5030522;28;45344;-77
2024/01/24 10:25:59;;;;;;;;;6.33;4.00;;;;;-144.62;100.00;60556.56;5036422;28;45391;-75
2024/01/24 10:28:25;;;;;;;;;14.33;7.67;;;;;-144.62;100.00;60556.56;5028101;28;45544;-75
2024/01/24 10:30:50;;;;;;;;;9.33;6.00;;;;;-144.62;100.00;60556.56;5033627;28;46806;-77
2024/01/24 10:33:16;;;;;;;;;10.00;6.00;;;;;-144.62;100.00;60556.56;5032573;27;45135;-74
2024/01/24 10:35:42;;;;;;;;;9.00;5.00;;;;;-144.62;100.00;60556.56;5036099;28;45300;-75
2024/01/24 10:38:12;;;;;;;;;11.67;6.00;;;;;-144.62;100.00;60556.56;5033826;28;45400;-77
2024/01/24 10:40:40;;;;;;;;;12.00;7.00;;;;;-144.62;100.00;60556.56;5036098;28;46407;-75
2024/01/24 10:43:11;;;;;;;;;6.67;3.00;;;;;-144.62;100.00;60556.56;5035496;28;45416;-76
2024/01/24 10:45:41;;;;;;;;;12.00;7.33;;;;;-144.62;100.00;60556.56;5036952;28;45419;-76
2024/01/24 10:48:09;;;;;;;;;13.67;4.00;;;;;-144.62;100.00;60556.56;5034982;28;45284;-76
2024/01/24 10:50:36;;;;;;;;;7.33;6.00;;;;;-144.62;100.00;60556.56;5026330;28;45581;-76
2024/01/24 10:53:02;;;;;;;;;7.67;6.00;;;;;-144.62;100.00;60556.56;5035600;27;45333;-76
2024/01/24 10:55:29;;;;;;;;;6.33;3.00;;;;;-144.62;100.00;60556.56;5025707;28;45324;-76
2024/01/24 10:57:54;;;;;;;;;7.67;4.67;;;;;-144.62;100.00;60556.56;5031283;27;45608;-77
2024/01/24 11:00:22;;;;;;;;;8.00;6.33;;;;;-144.62;100.00;60556.56;5040696;28;45771;-77
2024/01/24 11:02:48;;;;;;;;;6.00;5.00;;;;;-144.62;100.00;60556.56;5035562;28;45381;-77